Time;durP1;ratioP1;P1;durP2;ratioP2;P2;SDS_P1;SDS_P2;PMS_P1;PMS_P2;Temp;Humidity;BMP_temperature;BMP_pressure;BME280_temperature;BME280_humidity;BME280_pressure;Samples;Min_cycle;Max_cycle;Signal;HPM_P1;HPM_P2
2022/05/02 00:01:13;;;;;;;9.70;8.15;;;;;;;;;;5280076;28;20021;-67
2022/05/02 00:03:44;;;;;;;10.58;8.20;;;;;;;;;;5280757;28;20075;-67
2022/05/02 00:06:16;;;;;;;13.40;9.13;;;;;;;;;;5281279;28;20023;-68
2022/05/02 00:08:47;;;;;;;11.00;8.25;;;;;;;;;;5279682;28;20032;-67
2022/05/02 00:11:18;;;;;;;10.58;8.80;;;;;;;;;;5280378;28;20012;-67
2022/05/02 00:13:50;;;;;;;9.95;8.15;;;;;;;;;;5280055;28;20059;-66
2022/05/02 00:16:22;;;;;;;10.60;8.55;;;;;;;;;;5279416;28;20475;-67
2022/05/02 00:18:53;;;;;;;12.40;8.95;;;;;;;;;;5280953;28;20052;-67
2022/05/02 00:21:24;;;;;;;9.95;8.52;;;;;;;;;;5281942;28;20028;-67
2022/05/02 00:23:55;;;;;;;9.74;8.76;;;;;;;;;;5283926;28;20027;-67
2022/05/02 00:26:26;;;;;;;10.20;9.13;;;;;;;;;;5284041;28;20016;-67
2022/05/02 00:28:57;;;;;;;9.50;8.50;;;;;;;;;;5283671;28;20833;-67
2022/05/02 00:31:29;;;;;;;12.54;9.22;;;;;;;;;;5284040;28;20458;-67
2022/05/02 00:34:00;;;;;;;14.25;9.23;;;;;;;;;;5284342;28;20025;-67
2022/05/02 00:36:31;;;;;;;14.42;9.46;;;;;;;;;;5283061;28;20317;-67
2022/05/02 00:39:02;;;;;;;15.05;9.68;;;;;;;;;;5284339;28;20019;-67
2022/05/02 00:41:34;;;;;;;13.80;10.05;;;;;;;;;;5283860;28;20087;-67
2022/05/02 00:44:05;;;;;;;12.73;9.88;;;;;;;;;;5283190;28;20040;-67
2022/05/02 00:46:37;;;;;;;18.80;10.32;;;;;;;;;;5283132;28;20343;-67
2022/05/02 00:49:08;;;;;;;15.80;9.95;;;;;;;;;;5283637;28;20379;-68
2022/05/02 00:51:39;;;;;;;14.55;8.93;;;;;;;;;;5282575;28;20044;-66
2022/05/02 00:54:10;;;;;;;16.70;11.18;;;;;;;;;;5283455;28;20033;-67
2022/05/02 00:56:41;;;;;;;15.25;10.30;;;;;;;;;;5282819;28;20012;-66
2022/05/02 00:59:14;;;;;;;15.96;10.46;;;;;;;;;;5282732;28;20017;-66
2022/05/02 01:01:45;;;;;;;14.98;10.52;;;;;;;;;;5282805;28;20013;-66
2022/05/02 01:04:16;;;;;;;15.60;10.42;;;;;;;;;;5283061;28;20032;-67
2022/05/02 01:09:42;;;;;;;15.23;10.95;;;;;;;;;;5283191;28;20040;-67
2022/05/02 01:12:15;;;;;;;17.45;11.25;;;;;;;;;;5282477;28;20028;-67
2022/05/02 01:14:49;;;;;;;16.45;10.75;;;;;;;;;;5282350;28;20053;-66
2022/05/02 01:17:21;;;;;;;12.35;10.27;;;;;;;;;;5283004;28;20074;-67
2022/05/02 01:19:52;;;;;;;16.92;10.02;;;;;;;;;;5282151;28;20025;-67
2022/05/02 01:22:23;;;;;;;15.90;10.68;;;;;;;;;;5282275;28;20028;-67
2022/05/02 01:24:54;;;;;;;15.85;11.23;;;;;;;;;;5283176;28;20104;-67
2022/05/02 01:27:25;;;;;;;16.56;10.18;;;;;;;;;;5281456;28;20278;-66
2022/05/02 01:29:56;;;;;;;14.48;10.42;;;;;;;;;;5282768;28;20020;-67
2022/05/02 01:32:27;;;;;;;14.66;10.64;;;;;;;;;;5281281;28;20576;-67
2022/05/02 01:34:59;;;;;;;20.42;11.80;;;;;;;;;;5282483;28;20051;-67
2022/05/02 01:37:30;;;;;;;16.85;11.25;;;;;;;;;;5282076;28;20020;-67
2022/05/02 01:40:01;;;;;;;20.70;11.05;;;;;;;;;;5281714;28;20023;-67
2022/05/02 01:42:33;;;;;;;17.83;12.20;;;;;;;;;;5281790;28;20262;-67
2022/05/02 01:45:05;;;;;;;13.50;11.00;;;;;;;;;;5282184;28;20021;-67
2022/05/02 01:47:36;;;;;;;16.83;12.23;;;;;;;;;;5280740;28;20021;-67
2022/05/02 01:50:07;;;;;;;15.60;11.18;;;;;;;;;;5282070;28;20095;-67
2022/05/02 01:52:38;;;;;;;14.65;11.32;;;;;;;;;;5281702;28;20404;-67
2022/05/02 01:55:10;;;;;;;13.27;10.70;;;;;;;;;;5281357;28;20025;-67
2022/05/02 01:57:41;;;;;;;15.98;11.10;;;;;;;;;;5281627;28;20092;-67
2022/05/02 02:00:12;;;;;;;15.00;11.57;;;;;;;;;;5281673;28;20021;-67
2022/05/02 02:02:43;;;;;;;13.38;11.02;;;;;;;;;;5281578;28;20069;-66
2022/05/02 02:08:04;;;;;;;19.17;11.43;;;;;;;;;;5281790;28;20271;-66
2022/05/02 02:10:35;;;;;;;13.20;10.63;;;;;;;;;;5281256;28;20017;-67
2022/05/02 02:13:07;;;;;;;14.27;11.38;;;;;;;;;;5281809;28;20048;-66
2022/05/02 02:15:38;;;;;;;13.80;10.78;;;;;;;;;;5281021;28;20217;-68
2022/05/02 02:18:09;;;;;;;13.90;11.27;;;;;;;;;;5282118;28;20075;-66
2022/05/02 02:20:41;;;;;;;17.05;11.35;;;;;;;;;;5281664;28;20032;-67
2022/05/02 02:23:13;;;;;;;14.57;12.15;;;;;;;;;;5281153;28;20044;-67
2022/05/02 02:25:44;;;;;;;13.10;11.20;;;;;;;;;;5281185;28;20032;-66
2022/05/02 02:28:16;;;;;;;13.48;10.82;;;;;;;;;;5281349;28;20031;-67
2022/05/02 02:30:47;;;;;;;12.60;10.68;;;;;;;;;;5280651;28;20391;-67
2022/05/02 02:33:18;;;;;;;14.66;11.48;;;;;;;;;;5281015;28;20074;-66
2022/05/02 02:35:49;;;;;;;14.00;11.98;;;;;;;;;;5280754;28;20024;-66
2022/05/02 02:38:21;;;;;;;15.25;11.60;;;;;;;;;;5281258;28;20013;-67
2022/05/02 02:40:52;;;;;;;15.52;11.57;;;;;;;;;;5281427;28;20016;-68
2022/05/02 02:43:23;;;;;;;17.17;11.85;;;;;;;;;;5279740;28;20028;-67
2022/05/02 02:45:54;;;;;;;16.95;11.95;;;;;;;;;;5281428;28;20020;-67
2022/05/02 02:48:25;;;;;;;16.45;11.88;;;;;;;;;;5280915;28;20345;-67
2022/05/02 02:50:59;;;;;;;13.14;11.66;;;;;;;;;;5280777;28;20445;-67
2022/05/02 02:53:30;;;;;;;17.10;12.27;;;;;;;;;;5280520;28;20042;-68
2022/05/02 02:56:01;;;;;;;15.73;12.25;;;;;;;;;;5281129;28;20065;-66
2022/05/02 02:58:33;;;;;;;15.75;11.77;;;;;;;;;;5279863;28;20398;-66
2022/05/02 03:01:04;;;;;;;19.30;11.96;;;;;;;;;;5281132;28;20044;-66
2022/05/02 03:03:35;;;;;;;15.90;11.00;;;;;;;;;;5279713;28;20017;-67
2022/05/02 03:06:07;;;;;;;19.80;11.68;;;;;;;;;;5281227;28;20375;-67
2022/05/02 03:08:40;;;;;;;18.88;11.57;;;;;;;;;;5280316;28;20210;-67
2022/05/02 03:11:11;;;;;;;17.40;11.50;;;;;;;;;;5280599;28;20095;-67
2022/05/02 03:13:42;;;;;;;16.40;11.75;;;;;;;;;;5280338;28;20119;-67
2022/05/02 03:16:13;;;;;;;13.96;11.28;;;;;;;;;;5281107;28;20060;-66
2022/05/02 03:18:45;;;;;;;15.73;11.73;;;;;;;;;;5279588;28;20490;-67
2022/05/02 03:21:16;;;;;;;15.85;11.02;;;;;;;;;;5281394;28;20553;-67
2022/05/02 03:23:50;;;;;;;19.65;11.75;;;;;;;;;;5281548;28;20479;-67
2022/05/02 03:26:21;;;;;;;19.02;12.93;;;;;;;;;;5280489;28;20009;-67
2022/05/02 03:28:52;;;;;;;19.17;12.48;;;;;;;;;;5281498;28;20017;-68
2022/05/02 03:31:23;;;;;;;17.70;12.80;;;;;;;;;;5280630;28;20395;-66
2022/05/02 03:33:55;;;;;;;19.75;12.88;;;;;;;;;;5280064;28;20302;-66
2022/05/02 03:36:26;;;;;;;16.15;11.93;;;;;;;;;;5280171;28;20024;-66
2022/05/02 03:38:57;;;;;;;15.00;11.54;;;;;;;;;;5279996;28;20796;-66
2022/05/02 03:41:28;;;;;;;18.25;12.60;;;;;;;;;;5280306;28;20013;-66
2022/05/02 03:43:59;;;;;;;15.35;12.02;;;;;;;;;;5280626;28;20266;-66
2022/05/02 03:46:30;;;;;;;14.43;12.35;;;;;;;;;;5279315;28;20271;-66
2022/05/02 03:49:02;;;;;;;17.65;12.32;;;;;;;;;;5280751;28;20181;-68
2022/05/02 03:51:33;;;;;;;16.28;12.70;;;;;;;;;;5280272;28;20028;-68
2022/05/02 03:54:05;;;;;;;16.98;12.00;;;;;;;;;;5279869;28;20090;-68
2022/05/02 03:56:36;;;;;;;16.88;12.35;;;;;;;;;;5282061;28;20027;-67
2022/05/02 03:59:07;;;;;;;16.18;12.90;;;;;;;;;;5284753;28;20021;-68
2022/05/02 04:01:40;;;;;;;18.63;13.07;;;;;;;;;;5283436;28;20028;-67
2022/05/02 04:04:11;;;;;;;15.02;12.32;;;;;;;;;;5284315;28;20081;-68
2022/05/02 04:06:42;;;;;;;15.70;11.77;;;;;;;;;;5283956;28;20426;-67
2022/05/02 04:09:13;;;;;;;15.40;11.70;;;;;;;;;;5283492;28;20120;-67
2022/05/02 04:11:45;;;;;;;15.55;12.90;;;;;;;;;;5284079;28;20021;-67
2022/05/02 04:14:16;;;;;;;17.20;12.90;;;;;;;;;;5283399;28;20087;-67
2022/05/02 04:16:47;;;;;;;19.27;12.13;;;;;;;;;;5283721;28;20017;-68
2022/05/02 04:19:19;;;;;;;15.58;11.62;;;;;;;;;;5284056;28;20099;-67
2022/05/02 04:21:50;;;;;;;19.75;12.70;;;;;;;;;;5282835;28;20085;-68
2022/05/02 04:24:21;;;;;;;16.85;12.38;;;;;;;;;;5283704;28;20031;-68
2022/05/02 04:26:52;;;;;;;19.88;12.28;;;;;;;;;;5284187;28;20012;-68
2022/05/02 04:29:24;;;;;;;18.82;12.00;;;;;;;;;;5282729;28;20036;-67
2022/05/02 04:31:55;;;;;;;16.95;13.27;;;;;;;;;;5283926;28;20023;-67
2022/05/02 04:34:26;;;;;;;20.86;12.46;;;;;;;;;;5283175;28;20036;-67
2022/05/02 04:36:57;;;;;;;16.35;11.80;;;;;;;;;;5283279;28;20017;-67
2022/05/02 04:39:28;;;;;;;18.17;12.40;;;;;;;;;;5283359;28;20440;-66
2022/05/02 04:42:00;;;;;;;13.70;11.25;;;;;;;;;;5283030;28;20263;-66
2022/05/02 04:44:32;;;;;;;17.10;12.73;;;;;;;;;;5283089;28;20027;-67
2022/05/02 04:47:04;;;;;;;15.27;11.57;;;;;;;;;;5284031;28;20035;-68
2022/05/02 04:49:35;;;;;;;19.20;11.73;;;;;;;;;;5282188;28;20029;-68
2022/05/02 04:52:06;;;;;;;22.60;11.30;;;;;;;;;;5283699;28;20310;-68
2022/05/02 04:54:37;;;;;;;23.70;12.63;;;;;;;;;;5282889;28;20512;-66
2022/05/02 04:57:08;;;;;;;22.08;12.62;;;;;;;;;;5282710;28;20032;-67
2022/05/02 04:59:39;;;;;;;24.70;13.30;;;;;;;;;;5282960;28;20104;-68
2022/05/02 05:02:11;;;;;;;25.76;13.36;;;;;;;;;;5283766;28;20020;-67
2022/05/02 05:04:42;;;;;;;29.73;13.77;;;;;;;;;;5282238;28;20032;-67
2022/05/02 05:07:13;;;;;;;30.94;13.20;;;;;;;;;;5282871;28;20033;-67
2022/05/02 05:09:44;;;;;;;28.84;15.64;;;;;;;;;;5282869;28;20016;-67
2022/05/02 05:12:42;;;;;;;20.63;13.77;;;;;;;;;;5282850;28;20008;-67
2022/05/02 05:18:36;;;;;;;23.20;13.73;;;;;;;;;;5281979;28;20104;-67
2022/05/02 05:21:26;;;;;;;23.80;14.65;;;;;;;;;;5283254;28;20056;-67
2022/05/02 05:24:12;;;;;;;37.72;15.45;;;;;;;;;;5283074;28;20027;-68
2022/05/02 05:27:05;;;;;;;26.17;14.73;;;;;;;;;;5282589;28;20027;-66
2022/05/02 05:29:55;;;;;;;40.92;16.50;;;;;;;;;;5282148;28;20020;-67
2022/05/02 05:32:38;;;;;;;30.33;16.80;;;;;;;;;;5281392;28;20044;-67
2022/05/02 05:35:10;;;;;;;40.92;16.20;;;;;;;;;;5282523;28;20121;-66
2022/05/02 05:38:00;;;;;;;33.55;17.70;;;;;;;;;;5282176;28;20051;-66
2022/05/02 05:40:36;;;;;;;42.03;17.95;;;;;;;;;;5281337;28;20034;-67
2022/05/02 05:43:26;;;;;;;28.67;18.10;;;;;;;;;;5282524;28;20017;-66
2022/05/02 05:46:12;;;;;;;30.23;16.70;;;;;;;;;;5282122;28;20017;-66
2022/05/02 05:48:43;;;;;;;25.38;16.60;;;;;;;;;;5281910;28;20097;-67
2022/05/02 05:51:14;;;;;;;27.20;17.05;;;;;;;;;;5282316;28;20033;-66
2022/05/02 05:53:46;;;;;;;29.08;19.05;;;;;;;;;;5281201;28;20173;-66
2022/05/02 05:56:26;;;;;;;25.62;18.22;;;;;;;;;;5282636;28;20016;-67
2022/05/02 05:59:05;;;;;;;23.25;18.35;;;;;;;;;;5282391;28;20111;-68
2022/05/02 06:01:39;;;;;;;27.30;17.75;;;;;;;;;;5281163;28;20070;-67
2022/05/02 06:04:11;;;;;;;25.73;19.13;;;;;;;;;;5282829;28;20033;-67
2022/05/02 06:06:42;;;;;;;24.73;18.50;;;;;;;;;;5281722;28;20028;-67
2022/05/02 06:09:14;;;;;;;25.90;17.98;;;;;;;;;;5282663;28;20025;-67
2022/05/02 06:11:46;;;;;;;25.17;18.92;;;;;;;;;;5282154;28;20078;-68
2022/05/02 06:14:17;;;;;;;26.20;18.67;;;;;;;;;;5281412;28;20079;-66
2022/05/02 06:19:42;;;;;;;25.92;18.27;;;;;;;;;;5281265;28;20064;-66
2022/05/02 06:22:16;;;;;;;26.65;19.10;;;;;;;;;;5281688;28;20375;-66
2022/05/02 06:24:48;;;;;;;24.85;19.48;;;;;;;;;;5281626;28;20024;-66
2022/05/02 06:27:20;;;;;;;22.58;17.27;;;;;;;;;;5281923;28;20021;-68
2022/05/02 06:29:51;;;;;;;25.30;17.80;;;;;;;;;;5281318;28;20016;-66
2022/05/02 06:32:23;;;;;;;22.58;18.08;;;;;;;;;;5281565;28;20048;-66
2022/05/02 06:34:54;;;;;;;20.40;16.77;;;;;;;;;;5281285;28;20028;-67
2022/05/02 06:37:31;;;;;;;20.67;17.35;;;;;;;;;;5281694;28;20111;-67
2022/05/02 06:40:18;;;;;;;19.65;17.33;;;;;;;;;;5282029;28;20266;-66
2022/05/02 06:43:00;;;;;;;21.25;16.65;;;;;;;;;;5281265;28;20048;-66
2022/05/02 06:45:51;;;;;;;20.83;15.95;;;;;;;;;;5281318;28;20048;-67
2022/05/02 06:48:31;;;;;;;22.25;16.83;;;;;;;;;;5259949;28;20068;-67
2022/05/02 06:51:06;;;;;;;19.92;16.80;;;;;;;;;;5281558;28;20532;-67
2022/05/02 06:53:42;;;;;;;20.27;15.73;;;;;;;;;;5281263;28;20029;-67
2022/05/02 06:56:17;;;;;;;21.85;15.95;;;;;;;;;;5281140;28;20024;-66
2022/05/02 06:59:03;;;;;;;16.80;13.80;;;;;;;;;;5281308;28;20020;-67
2022/05/02 07:01:45;;;;;;;19.85;15.32;;;;;;;;;;5281216;28;20021;-67
2022/05/02 07:04:16;;;;;;;20.42;15.80;;;;;;;;;;5281087;28;20036;-67
2022/05/02 07:06:57;;;;;;;19.17;14.30;;;;;;;;;;5281170;28;20082;-67
2022/05/02 07:09:31;;;;;;;15.32;13.48;;;;;;;;;;5281286;28;20032;-68
2022/05/02 07:12:05;;;;;;;15.90;12.88;;;;;;;;;;5280647;28;20025;-68
2022/05/02 07:14:55;;;;;;;17.65;13.77;;;;;;;;;;5280928;28;20094;-68
2022/05/02 07:17:32;;;;;;;15.65;13.45;;;;;;;;;;5280506;28;20035;-68
2022/05/02 07:20:05;;;;;;;16.50;12.32;;;;;;;;;;5281828;28;20165;-68
2022/05/02 07:22:38;;;;;;;17.13;12.32;;;;;;;;;;5281002;28;20097;-68
2022/05/02 07:25:11;;;;;;;15.63;11.43;;;;;;;;;;5280878;28;20069;-67
2022/05/02 07:27:42;;;;;;;14.35;11.20;;;;;;;;;;5281260;28;20033;-68
2022/05/02 07:30:14;;;;;;;21.00;11.63;;;;;;;;;;5283151;28;20023;-67
2022/05/02 07:32:45;;;;;;;15.68;11.85;;;;;;;;;;5284594;28;20036;-68
2022/05/02 07:35:17;;;;;;;13.30;11.20;;;;;;;;;;5285765;28;20040;-68
2022/05/02 07:37:49;;;;;;;11.82;10.30;;;;;;;;;;5284442;28;20354;-68
2022/05/02 07:40:20;;;;;;;13.15;10.38;;;;;;;;;;5285542;28;20040;-68
2022/05/02 07:42:53;;;;;;;12.50;9.50;;;;;;;;;;5285601;28;20027;-68
2022/05/02 07:45:27;;;;;;;11.00;9.68;;;;;;;;;;5284242;28;20094;-68
2022/05/02 07:48:01;;;;;;;12.95;9.93;;;;;;;;;;5285545;28;20379;-67
2022/05/02 07:50:32;;;;;;;16.88;10.63;;;;;;;;;;5285168;28;20023;-68
2022/05/02 07:53:06;;;;;;;16.80;10.75;;;;;;;;;;5284829;28;20096;-68
2022/05/02 07:55:38;;;;;;;15.05;10.68;;;;;;;;;;5284870;28;20116;-69
2022/05/02 07:58:09;;;;;;;15.43;11.25;;;;;;;;;;5285492;28;20091;-68
2022/05/02 08:00:40;;;;;;;15.65;10.38;;;;;;;;;;5283977;28;20047;-67
2022/05/02 08:03:12;;;;;;;17.33;10.13;;;;;;;;;;5285513;28;20482;-68
2022/05/02 08:05:44;;;;;;;15.07;10.35;;;;;;;;;;5284783;28;20271;-67
2022/05/02 08:08:20;;;;;;;12.52;10.13;;;;;;;;;;5284467;28;20028;-68
2022/05/02 08:10:56;;;;;;;10.05;8.90;;;;;;;;;;5284800;28;20052;-68
2022/05/02 08:13:38;;;;;;;11.18;9.40;;;;;;;;;;5283568;28;20048;-68
2022/05/02 08:16:09;;;;;;;11.00;9.05;;;;;;;;;;5285180;28;20033;-68
2022/05/02 08:18:49;;;;;;;12.25;9.13;;;;;;;;;;5284266;28;20032;-68
2022/05/02 08:21:29;;;;;;;14.75;10.07;;;;;;;;;;5283809;28;20037;-68
2022/05/02 08:27:16;;;;;;;11.48;9.52;;;;;;;;;;5284510;28;20036;-68
2022/05/02 08:29:48;;;;;;;12.30;9.27;;;;;;;;;;5284259;28;20479;-68
2022/05/02 08:32:22;;;;;;;12.63;8.77;;;;;;;;;;5284374;28;20071;-67
2022/05/02 08:35:11;;;;;;;12.23;8.63;;;;;;;;;;5283869;28;20027;-68
2022/05/02 08:38:01;;;;;;;12.18;7.78;;;;;;;;;;5283869;28;20522;-68
2022/05/02 08:40:51;;;;;;;11.63;7.32;;;;;;;;;;5284102;28;20055;-69
2022/05/02 08:43:40;;;;;;;10.70;7.25;;;;;;;;;;5282520;28;20032;-69
2022/05/02 08:46:26;;;;;;;9.10;7.20;;;;;;;;;;5284459;28;20472;-69
2022/05/02 08:49:32;;;;;;;10.93;8.05;;;;;;;;;;5283960;28;20089;-69
2022/05/02 08:52:03;;;;;;;12.85;8.13;;;;;;;;;;5284497;28;20016;-69
2022/05/02 08:54:53;;;;;;;11.02;7.20;;;;;;;;;;5283748;28;20033;-69
2022/05/02 08:57:44;;;;;;;11.15;7.82;;;;;;;;;;5283084;28;20137;-69
2022/05/02 09:00:24;;;;;;;8.73;7.82;;;;;;;;;;5284046;28;20028;-69
2022/05/02 09:03:02;;;;;;;8.98;6.88;;;;;;;;;;5283442;28;20025;-68
2022/05/02 09:05:34;;;;;;;8.35;7.22;;;;;;;;;;5283549;28;20107;-69
2022/05/02 09:08:24;;;;;;;7.90;6.65;;;;;;;;;;5284213;28;20028;-68
2022/05/02 09:11:07;;;;;;;10.18;7.45;;;;;;;;;;5283293;28;20032;-70
2022/05/02 09:13:47;;;;;;;9.32;6.80;;;;;;;;;;5283168;28;20452;-68
2022/05/02 09:16:37;;;;;;;10.32;6.60;;;;;;;;;;5282997;28;20372;-69
2022/05/02 09:19:27;;;;;;;8.43;6.40;;;;;;;;;;5283846;28;20535;-68
2022/05/02 09:21:58;;;;;;;5.35;4.85;;;;;;;;;;5283922;28;20027;-69
2022/05/02 09:24:39;;;;;;;8.20;5.43;;;;;;;;;;5282646;28;20044;-69
2022/05/02 09:27:22;;;;;;;7.05;6.28;;;;;;;;;;5283831;28;20115;-68
2022/05/02 09:29:59;;;;;;;10.15;7.38;;;;;;;;;;5283755;28;20073;-69
2022/05/02 09:32:38;;;;;;;7.68;6.93;;;;;;;;;;5282578;28;20021;-69
2022/05/02 09:35:13;;;;;;;6.13;5.50;;;;;;;;;;5283721;28;20032;-68
2022/05/02 09:37:57;;;;;;;7.80;6.28;;;;;;;;;;5282381;28;20095;-69
2022/05/02 09:40:41;;;;;;;6.93;5.80;;;;;;;;;;5282922;28;20525;-68
2022/05/02 09:43:22;;;;;;;6.85;5.22;;;;;;;;;;5283667;28;20479;-69
2022/05/02 09:52:02;;;;;;;8.27;7.20;;;;;;;;;;5282056;28;20043;-69
2022/05/02 09:57:50;;;;;;;12.63;5.70;;;;;;;;;;5283055;28;20483;-69
2022/05/02 10:03:24;;;;;;;7.43;6.35;;;;;;;;;;5283206;28;20028;-69
2022/05/02 10:06:16;;;;;;;10.10;5.80;;;;;;;;;;5282220;28;20025;-69
2022/05/02 10:08:48;;;;;;;7.05;6.45;;;;;;;;;;5281728;28;20021;-69
2022/05/02 10:11:20;;;;;;;7.88;5.85;;;;;;;;;;5282560;28;20122;-69
2022/05/02 10:14:00;;;;;;;6.13;5.00;;;;;;;;;;5281439;28;20049;-69
2022/05/02 10:16:40;;;;;;;6.55;5.65;;;;;;;;;;5282200;28;20058;-68
2022/05/02 10:19:35;;;;;;;6.88;6.00;;;;;;;;;;5282649;28;20353;-68
2022/05/02 10:22:19;;;;;;;9.80;6.45;;;;;;;;;;5282433;28;20066;-67
2022/05/02 10:24:50;;;;;;;8.50;5.75;;;;;;;;;;5282426;28;20396;-68
2022/05/02 10:27:41;;;;;;;8.30;5.40;;;;;;;;;;5281066;28;20025;-68
2022/05/02 10:30:12;;;;;;;9.48;5.72;;;;;;;;;;5282236;28;20031;-68
2022/05/02 10:32:43;;;;;;;7.18;5.50;;;;;;;;;;5281684;28;20016;-68
2022/05/02 10:35:17;;;;;;;8.45;6.22;;;;;;;;;;5281471;28;20480;-68
2022/05/02 10:37:54;;;;;;;6.13;5.57;;;;;;;;;;5281446;28;20113;-68
2022/05/02 10:40:39;;;;;;;8.65;5.85;;;;;;;;;;5281665;28;20024;-67
2022/05/02 10:43:11;;;;;;;6.85;5.88;;;;;;;;;;5282196;28;20086;-68
2022/05/02 10:45:43;;;;;;;7.93;5.60;;;;;;;;;;5281724;28;20016;-68
2022/05/02 10:48:15;;;;;;;8.23;5.38;;;;;;;;;;5281441;28;20024;-68
2022/05/02 10:50:49;;;;;;;7.07;5.78;;;;;;;;;;5281597;28;20017;-68
2022/05/02 10:53:20;;;;;;;7.80;5.20;;;;;;;;;;5281605;28;20024;-68
2022/05/02 10:55:58;;;;;;;9.18;5.72;;;;;;;;;;5281254;28;20356;-68
2022/05/02 10:58:31;;;;;;;7.68;6.30;;;;;;;;;;5281749;28;20348;-69
2022/05/02 11:01:06;;;;;;;9.48;5.68;;;;;;;;;;5282076;28;20050;-68
2022/05/02 11:03:42;;;;;;;8.98;6.50;;;;;;;;;;5280466;28;20017;-68
2022/05/02 11:06:32;;;;;;;8.07;5.03;;;;;;;;;;5281883;28;20438;-68
2022/05/02 11:09:06;;;;;;;9.50;6.22;;;;;;;;;;5281090;28;20112;-68
2022/05/02 11:11:45;;;;;;;8.38;6.03;;;;;;;;;;5281288;28;20044;-68
2022/05/02 11:14:49;;;;;;;9.43;6.05;;;;;;;;;;5281805;28;20063;-67
2022/05/02 11:17:25;;;;;;;6.88;5.70;;;;;;;;;;5280774;28;20044;-69
2022/05/02 11:22:56;;;;;;;9.15;6.35;;;;;;;;;;5280831;28;20028;-69
2022/05/02 11:25:34;;;;;;;10.80;7.25;;;;;;;;;;5281366;28;20035;-69
2022/05/02 11:28:09;;;;;;;12.23;6.53;;;;;;;;;;5281824;28;20398;-68
2022/05/02 11:30:47;;;;;;;7.43;5.50;;;;;;;;;;5280103;28;20024;-69
2022/05/02 11:33:44;;;;;;;7.72;5.68;;;;;;;;;;5281641;28;20093;-68
2022/05/02 11:36:21;;;;;;;6.78;6.07;;;;;;;;;;5279308;28;20483;-69
2022/05/02 11:38:55;;;;;;;7.57;5.63;;;;;;;;;;5280593;28;20099;-68
2022/05/02 11:41:28;;;;;;;10.60;5.80;;;;;;;;;;5280747;28;20035;-68
2022/05/02 11:44:18;;;;;;;11.48;6.00;;;;;;;;;;5280823;28;20111;-68
2022/05/02 11:47:05;;;;;;;11.45;5.60;;;;;;;;;;5280847;28;20028;-68
2022/05/02 11:49:55;;;;;;;7.32;6.00;;;;;;;;;;5280722;28;20387;-68
2022/05/02 11:52:30;;;;;;;7.22;6.18;;;;;;;;;;5279898;28;20029;-69
2022/05/02 11:55:03;;;;;;;7.60;6.57;;;;;;;;;;5281369;28;20102;-68
2022/05/02 11:57:35;;;;;;;10.13;6.32;;;;;;;;;;5280611;28;20028;-69
2022/05/02 12:00:14;;;;;;;10.27;6.00;;;;;;;;;;5280522;28;20431;-68
2022/05/02 12:02:53;;;;;;;10.88;6.47;;;;;;;;;;5280800;28;20427;-69
2022/05/02 12:05:27;;;;;;;9.55;6.40;;;;;;;;;;5280114;28;20073;-69
2022/05/02 12:08:03;;;;;;;7.72;5.93;;;;;;;;;;5281191;28;20028;-68
2022/05/02 12:10:46;;;;;;;7.18;5.43;;;;;;;;;;5280546;28;20028;-68
2022/05/02 12:13:18;;;;;;;7.88;6.18;;;;;;;;;;5280415;28;20407;-68
2022/05/02 12:15:56;;;;;;;9.38;6.07;;;;;;;;;;5280841;28;20039;-69
2022/05/02 12:18:39;;;;;;;8.05;6.57;;;;;;;;;;5283654;28;20020;-68
2022/05/02 12:21:23;;;;;;;8.25;5.93;;;;;;;;;;5284077;28;20020;-68
2022/05/02 12:23:55;;;;;;;8.07;5.90;;;;;;;;;;5284864;28;20044;-68
2022/05/02 12:26:27;;;;;;;8.55;6.70;;;;;;;;;;5283543;28;20087;-68
2022/05/02 12:29:04;;;;;;;7.85;5.45;;;;;;;;;;5284707;28;20048;-68
2022/05/02 12:31:36;;;;;;;7.35;5.72;;;;;;;;;;5284381;28;20021;-68
2022/05/02 12:34:09;;;;;;;10.77;5.60;;;;;;;;;;5284141;28;20020;-68
2022/05/02 12:36:43;;;;;;;10.13;6.20;;;;;;;;;;5283998;28;20358;-69
2022/05/02 12:39:27;;;;;;;7.03;6.30;;;;;;;;;;5284697;28;20017;-69
2022/05/02 12:42:17;;;;;;;8.55;6.45;;;;;;;;;;5283650;28;20021;-69
2022/05/02 12:44:57;;;;;;;7.75;6.72;;;;;;;;;;5283928;28;20029;-68
2022/05/02 12:47:32;;;;;;;6.93;6.28;;;;;;;;;;5283007;28;20608;-68
2022/05/02 12:50:03;;;;;;;8.38;6.53;;;;;;;;;;5284182;28;20021;-68
2022/05/02 12:52:41;;;;;;;8.88;6.05;;;;;;;;;;5283799;28;20045;-69
2022/05/02 12:55:14;;;;;;;7.60;6.10;;;;;;;;;;5283467;28;20032;-68
2022/05/02 13:00:45;;;;;;;10.68;6.47;;;;;;;;;;5283907;28;20036;-69
2022/05/02 13:03:18;;;;;;;6.60;5.85;;;;;;;;;;5283289;28;20056;-68
2022/05/02 13:05:52;;;;;;;10.40;6.97;;;;;;;;;;5283796;28;20381;-67
2022/05/02 13:08:41;;;;;;;9.13;6.78;;;;;;;;;;5282562;28;20054;-68
2022/05/02 13:11:15;;;;;;;8.40;6.85;;;;;;;;;;5284019;28;20019;-68
2022/05/02 13:13:49;;;;;;;9.75;6.00;;;;;;;;;;5282997;28;20041;-68
2022/05/02 13:16:25;;;;;;;7.43;6.43;;;;;;;;;;5282734;28;20029;-69
2022/05/02 13:18:58;;;;;;;7.88;6.50;;;;;;;;;;5283685;28;20074;-68
2022/05/02 13:21:30;;;;;;;11.77;6.72;;;;;;;;;;5283384;28;20040;-68
2022/05/02 13:24:07;;;;;;;7.80;6.70;;;;;;;;;;5282967;28;20059;-69
2022/05/02 13:26:56;;;;;;;9.18;5.68;;;;;;;;;;5283103;28;20387;-69
2022/05/02 13:29:46;;;;;;;11.55;6.25;;;;;;;;;;5281934;28;20056;-69
2022/05/02 13:32:25;;;;;;;7.60;6.15;;;;;;;;;;5283653;28;20064;-69
2022/05/02 13:35:05;;;;;;;10.23;5.88;;;;;;;;;;5283216;28;20368;-68
2022/05/02 13:37:55;;;;;;;14.73;6.03;;;;;;;;;;5281838;28;20016;-68
2022/05/02 13:40:37;;;;;;;13.05;6.80;;;;;;;;;;5282653;28;20033;-69
2022/05/02 13:43:15;;;;;;;6.28;5.72;;;;;;;;;;5283101;28;20372;-69
2022/05/02 13:45:47;;;;;;;6.35;5.72;;;;;;;;;;5281777;28;20020;-69
2022/05/02 13:48:24;;;;;;;8.50;6.50;;;;;;;;;;5282864;28;20023;-69
2022/05/02 13:51:01;;;;;;;6.97;6.13;;;;;;;;;;5282475;28;20024;-68
2022/05/02 13:53:36;;;;;;;6.03;5.53;;;;;;;;;;5282455;28;20132;-69
2022/05/02 13:56:25;;;;;;;6.65;4.93;;;;;;;;;;5283118;28;20368;-68
2022/05/02 13:59:15;;;;;;;9.98;6.13;;;;;;;;;;5282038;28;20056;-69
2022/05/02 14:01:52;;;;;;;10.90;6.43;;;;;;;;;;5282354;28;20074;-68
2022/05/02 14:04:38;;;;;;;11.95;6.82;;;;;;;;;;5282047;28;20066;-69
2022/05/02 14:07:14;;;;;;;8.10;6.53;;;;;;;;;;5282185;28;20051;-67
2022/05/02 14:09:54;;;;;;;6.88;5.60;;;;;;;;;;5281946;28;20090;-67
2022/05/02 14:12:29;;;;;;;9.57;5.68;;;;;;;;;;5281257;28;20023;-68
2022/05/02 14:15:07;;;;;;;10.15;6.93;;;;;;;;;;5263714;28;20119;-66
2022/05/02 14:17:45;;;;;;;7.90;7.10;;;;;;;;;;5261745;28;20075;-66
2022/05/02 14:20:25;;;;;;;7.10;6.40;;;;;;;;;;5259893;28;20476;-66
2022/05/02 14:22:57;;;;;;;9.15;6.40;;;;;;;;;;5260916;28;20104;-68
2022/05/02 14:25:36;;;;;;;7.72;5.70;;;;;;;;;;5260124;28;20021;-68
2022/05/02 14:28:07;;;;;;;8.50;5.68;;;;;;;;;;5259479;28;20175;-68
2022/05/02 14:30:41;;;;;;;7.60;5.82;;;;;;;;;;5260296;28;20481;-67
2022/05/02 14:33:13;;;;;;;9.68;5.72;;;;;;;;;;5259813;28;20029;-67
2022/05/02 14:35:45;;;;;;;9.85;7.20;;;;;;;;;;5260876;28;20028;-66
2022/05/02 14:38:16;;;;;;;7.65;6.85;;;;;;;;;;5268013;28;20016;-66
2022/05/02 14:40:48;;;;;;;8.85;6.82;;;;;;;;;;5279487;28;20051;-66
2022/05/02 14:43:19;;;;;;;5.57;4.93;;;;;;;;;;5281078;28;20012;-66
2022/05/02 14:45:50;;;;;;;9.77;6.82;;;;;;;;;;5280789;28;20282;-67
2022/05/02 14:48:22;;;;;;;7.53;6.40;;;;;;;;;;5275841;28;20383;-67
2022/05/02 14:51:00;;;;;;;8.85;6.10;;;;;;;;;;5268205;28;20436;-67
2022/05/02 14:53:36;;;;;;;7.20;6.10;;;;;;;;;;5260309;28;20021;-67
2022/05/02 14:56:09;;;;;;;9.80;7.22;;;;;;;;;;5260266;28;20025;-67
2022/05/02 14:58:42;;;;;;;9.85;6.28;;;;;;;;;;5260413;28;20018;-67
2022/05/02 15:01:14;;;;;;;8.65;7.75;;;;;;;;;;5260217;28;20195;-68
2022/05/02 15:03:46;;;;;;;10.63;6.90;;;;;;;;;;5260605;28;20557;-68
2022/05/02 15:06:24;;;;;;;11.38;6.95;;;;;;;;;;5260972;28;20047;-67
2022/05/02 15:09:13;;;;;;;9.20;7.13;;;;;;;;;;5260205;28;20017;-67
2022/05/02 15:11:56;;;;;;;10.65;7.22;;;;;;;;;;5260216;28;20017;-67
2022/05/02 15:14:31;;;;;;;12.15;7.50;;;;;;;;;;5259986;28;20049;-67
2022/05/02 15:17:18;;;;;;;12.10;7.78;;;;;;;;;;5260248;28;20419;-66
2022/05/02 15:19:49;;;;;;;10.35;5.97;;;;;;;;;;5260100;28;20051;-67
2022/05/02 15:22:24;;;;;;;7.85;7.05;;;;;;;;;;5259974;28;20048;-67
2022/05/02 15:24:59;;;;;;;11.07;7.75;;;;;;;;;;5260718;28;20071;-67
2022/05/02 15:38:58;;;;;;;12.63;7.18;;;;;;;;;;5260500;28;20477;-67
2022/05/02 15:41:47;;;;;;;8.25;6.53;;;;;;;;;;5260086;28;20067;-68
2022/05/02 15:44:20;;;;;;;9.23;6.50;;;;;;;;;;5259647;28;20082;-67
2022/05/02 15:46:52;;;;;;;7.53;6.05;;;;;;;;;;5260213;28;20104;-69
2022/05/02 15:49:24;;;;;;;7.10;6.03;;;;;;;;;;5260185;28;20040;-67
2022/05/02 15:51:59;;;;;;;10.82;5.40;;;;;;;;;;5262458;28;20575;-68
2022/05/02 15:54:30;;;;;;;6.93;5.20;;;;;;;;;;5264033;28;20068;-68
2022/05/02 15:57:13;;;;;;;9.77;5.65;;;;;;;;;;5264516;28;20060;-68
2022/05/02 15:59:45;;;;;;;8.05;5.72;;;;;;;;;;5264092;28;20348;-68
2022/05/02 16:02:19;;;;;;;15.98;13.57;;;;;;;;;;5264822;28;20027;-68